Terminal Aerodrome Forecast
Issued by NWS

Home | Current Version | Previous Version | Text Only | Print | Product List | Glossary On
Versions: 1 2 3 4 5 6 7 8 9 10 11 12 13 14 15 16 17 18 19 20 21
000
FTUS44 KHGX 270526
TAFUTS
TAF
KUTS 270526Z 2706/2806 19005KT P6SM SKC
     FM271000 VRB03KT 6SM BR SCT003 SCT250
      TEMPO 2710/2713 3SM BR BKN008
     FM271500 21004KT P6SM SCT025=

USA.gov is the U.S. government's official web portal to all federal, state and local government web resources and services.